createdAt,value
2023-05-07T00:04:04.182Z,1254
2023-05-07T00:09:23.463Z,1246
2023-05-07T00:14:41.947Z,1216
2023-05-07T00:20:00.355Z,1190
2023-05-07T00:25:18.762Z,1196
2023-05-07T00:30:37.021Z,1216
2023-05-07T00:35:55.748Z,1232
2023-05-07T00:41:14.196Z,1244
2023-05-07T00:46:32.485Z,1250
2023-05-07T00:51:51.431Z,1274
2023-05-07T00:57:10.202Z,1282
2023-05-07T01:02:28.449Z,1279
2023-05-07T01:07:47.070Z,1304
2023-05-07T01:13:05.908Z,1305
2023-05-07T01:18:24.387Z,1309
2023-05-07T01:23:42.878Z,1305
2023-05-07T01:29:01.580Z,1305
2023-05-07T01:34:19.804Z,1308
2023-05-07T01:39:38.437Z,1304
2023-05-07T01:44:56.837Z,1299
2023-05-07T01:50:15.034Z,1287
2023-05-07T01:55:33.377Z,1291
2023-05-07T02:00:51.865Z,1287
2023-05-07T02:06:10.285Z,1285
2023-05-07T02:11:28.784Z,1276
2023-05-07T02:16:47.503Z,1291
2023-05-07T02:22:06.162Z,1295
2023-05-07T02:27:24.777Z,1299
2023-05-07T02:32:43.249Z,1312
2023-05-07T02:38:01.723Z,1312
2023-05-07T02:43:20.393Z,1320
2023-05-07T02:48:38.736Z,1330
2023-05-07T02:53:56.960Z,1337
2023-05-07T02:59:15.343Z,1333
2023-05-07T03:04:33.624Z,1318
2023-05-07T03:09:51.918Z,1307
2023-05-07T03:15:09.963Z,1303
2023-05-07T03:20:28.287Z,1294
2023-05-07T03:25:46.343Z,1308
2023-05-07T03:31:04.887Z,1325
2023-05-07T03:36:23.096Z,1328
2023-05-07T03:41:41.607Z,1327
2023-05-07T03:47:00.072Z,1317
2023-05-07T03:52:18.352Z,1317
2023-05-07T03:57:36.870Z,1347
2023-05-07T04:02:55.306Z,1342
2023-05-07T04:08:13.845Z,1333
2023-05-07T04:13:32.430Z,1339
2023-05-07T04:18:50.395Z,1326
2023-05-07T04:24:08.778Z,1354
2023-05-07T04:29:27.307Z,1379
2023-05-07T04:34:45.993Z,1347
2023-05-07T04:40:04.900Z,1347
2023-05-07T04:45:23.194Z,1336
2023-05-07T04:50:46.704Z,1351
2023-05-07T04:56:04.969Z,1348
2023-05-07T05:01:23.541Z,1351
2023-05-07T05:06:42.090Z,1372
2023-05-07T05:12:00.610Z,1376
2023-05-07T05:17:19.759Z,1384
2023-05-07T05:22:44.641Z,1404
2023-05-07T05:28:02.940Z,1392
2023-05-07T05:33:21.367Z,1401
2023-05-07T05:38:39.975Z,1436
2023-05-07T05:43:58.337Z,1447
2023-05-07T05:49:28.329Z,1457
2023-05-07T05:54:48.213Z,1456
2023-05-07T06:00:06.883Z,1110
2023-05-07T06:05:25.118Z,1202
2023-05-07T06:10:43.684Z,1249
2023-05-07T06:16:05.755Z,1253
2023-05-07T06:21:24.180Z,1232
2023-05-07T06:26:42.614Z,1239
2023-05-07T06:32:01.074Z,1255
2023-05-07T06:37:24.872Z,1259
2023-05-07T06:42:43.258Z,1256
2023-05-07T06:48:01.977Z,1259
2023-05-07T06:53:21.548Z,1259
2023-05-07T06:58:40.589Z,1254
2023-05-07T07:03:58.869Z,1263
2023-05-07T07:09:17.308Z,1025
2023-05-07T07:14:35.756Z,958
2023-05-07T07:19:54.581Z,903
2023-05-07T07:25:13.841Z,936
2023-05-07T07:30:32.606Z,1052
2023-05-07T07:35:51.026Z,1106
2023-05-07T07:41:09.600Z,1119
2023-05-07T07:46:28.086Z,1104
2023-05-07T07:51:46.785Z,1061
2023-05-07T07:57:05.235Z,1006
2023-05-07T08:02:24.097Z,996
2023-05-07T08:07:43.571Z,941
2023-05-07T08:13:01.811Z,887
2023-05-07T08:18:20.185Z,846
2023-05-07T08:23:38.517Z,767
2023-05-07T08:28:56.537Z,951
2023-05-07T08:34:14.780Z,1002
2023-05-07T08:39:33.516Z,1079
2023-05-07T08:44:51.561Z,1139
2023-05-07T08:50:10.410Z,1118
2023-05-07T08:55:29.314Z,1142
2023-05-07T09:00:47.551Z,1166
2023-05-07T09:06:06.194Z,1187
2023-05-07T09:11:24.550Z,1188
2023-05-07T09:16:42.564Z,1189
2023-05-07T09:22:01.468Z,1183
2023-05-07T09:27:20.060Z,1179
2023-05-07T09:32:38.487Z,1179
2023-05-07T09:37:57.255Z,1168
2023-05-07T09:43:16.119Z,1165
2023-05-07T09:48:34.563Z,1155
2023-05-07T09:53:53.225Z,1146
2023-05-07T09:59:11.855Z,1145
2023-05-07T10:04:29.968Z,1138
2023-05-07T10:09:48.925Z,1128
2023-05-07T10:15:08.125Z,1121
2023-05-07T10:20:26.401Z,1117
2023-05-07T10:25:45.793Z,1116
2023-05-07T10:31:04.845Z,1117
2023-05-07T10:36:23.142Z,1108
2023-05-07T10:41:41.696Z,1110
2023-05-07T10:47:00.176Z,1107
2023-05-07T10:52:18.868Z,1108
2023-05-07T10:57:37.275Z,1103
2023-05-07T11:02:56.075Z,1101
2023-05-07T11:08:14.659Z,1095
2023-05-07T11:13:32.989Z,1091
2023-05-07T11:18:51.194Z,1083
2023-05-07T11:24:12.760Z,1076
2023-05-07T11:29:31.248Z,1075
2023-05-07T11:34:49.967Z,1071
2023-05-07T11:40:08.179Z,1067
2023-05-07T11:45:26.905Z,1063
2023-05-07T11:50:45.465Z,1061
2023-05-07T11:56:03.801Z,1057
2023-05-07T12:01:22.197Z,1055
2023-05-07T12:06:43.160Z,1048
2023-05-07T12:12:01.496Z,1039
2023-05-07T12:17:19.701Z,1035
2023-05-07T12:22:37.812Z,1029
2023-05-07T12:27:56.053Z,1024
2023-05-07T12:33:14.517Z,1016
2023-05-07T12:38:35.984Z,1013
2023-05-07T12:43:54.156Z,1007
2023-05-07T12:49:12.617Z,1005
2023-05-07T12:54:31.226Z,1006
2023-05-07T12:59:49.613Z,1005
2023-05-07T13:05:08.120Z,1002
2023-05-07T13:10:27.702Z,1003
2023-05-07T13:15:46.037Z,1008
2023-05-07T13:21:04.559Z,1004
2023-05-07T13:26:26.544Z,1005
2023-05-07T13:31:46.764Z,1003
2023-05-07T13:37:11.158Z,1002
2023-05-07T13:42:30.357Z,1009
2023-05-07T13:47:48.613Z,1026
2023-05-07T13:53:06.981Z,1023
2023-05-07T13:58:25.684Z,1023
2023-05-07T14:03:44.095Z,1023
2023-05-07T14:09:02.711Z,1028
2023-05-07T14:14:21.276Z,1024
2023-05-07T14:19:40.347Z,1028
2023-05-07T14:25:06.226Z,1033
2023-05-07T14:30:26.656Z,1031
2023-05-07T14:35:44.974Z,1028
2023-05-07T14:41:04.236Z,1022
2023-05-07T14:46:23.802Z,1014
2023-05-07T14:51:42.352Z,1014
2023-05-07T14:57:04.503Z,1014
2023-05-07T15:02:23.117Z,1008
2023-05-07T15:07:41.714Z,1007
2023-05-07T15:13:00.052Z,1006
2023-05-07T15:18:22.515Z,1001
2023-05-07T15:23:27.169Z,995
2023-05-07T15:28:45.815Z,1000
2023-05-07T15:33:48.787Z,1001
2023-05-07T15:39:07.212Z,992
2023-05-07T15:44:25.380Z,996
2023-05-07T15:49:43.893Z,984
2023-05-07T15:55:02.238Z,984
2023-05-07T16:00:20.751Z,982
2023-05-07T16:05:39.251Z,979
2023-05-07T16:10:57.626Z,977
2023-05-07T16:16:15.989Z,982
2023-05-07T16:21:35.051Z,978
2023-05-07T16:26:55.907Z,987
2023-05-07T16:32:14.171Z,986
2023-05-07T16:37:32.668Z,990
2023-05-07T16:42:51.865Z,992
2023-05-07T16:48:13.624Z,994
2023-05-07T16:53:32.195Z,997
2023-05-07T16:58:50.329Z,1000
2023-05-07T17:04:08.810Z,998
2023-05-07T17:09:27.716Z,1004
2023-05-07T17:14:46.022Z,1003
2023-05-07T17:20:04.457Z,1007
2023-05-07T17:25:07.483Z,1005
2023-05-07T17:30:26.782Z,1005
2023-05-07T17:35:44.995Z,1000
2023-05-07T17:41:03.153Z,1002
2023-05-07T17:46:21.331Z,1005
2023-05-07T17:51:50.201Z,1004
2023-05-07T17:57:14.576Z,989
2023-05-07T18:02:32.989Z,1010
2023-05-07T18:07:51.517Z,1027
2023-05-07T18:13:10.953Z,1028
2023-05-07T18:18:29.797Z,1037
2023-05-07T18:23:48.146Z,1078
2023-05-07T18:29:06.723Z,1110
2023-05-07T18:34:25.622Z,1101
2023-05-07T18:39:44.228Z,1097
2023-05-07T18:45:02.406Z,1072
2023-05-07T18:50:20.825Z,1074
2023-05-07T18:55:42.537Z,1083
2023-05-07T19:01:02.168Z,1076
2023-05-07T19:06:20.234Z,1079
2023-05-07T19:11:41.109Z,1091
2023-05-07T19:16:59.512Z,1104
2023-05-07T19:22:02.192Z,1126
2023-05-07T19:27:20.356Z,1155
2023-05-07T19:32:38.528Z,1169
2023-05-07T19:37:41.337Z,1174
2023-05-07T19:43:00.051Z,1195
2023-05-07T19:48:18.262Z,1197
2023-05-07T19:53:36.591Z,1184
2023-05-07T19:58:55.170Z,1181
2023-05-07T20:04:13.410Z,1172
2023-05-07T20:09:31.771Z,1168
2023-05-07T20:14:50.221Z,1155
2023-05-07T20:20:08.744Z,1154
2023-05-07T20:25:27.292Z,1157
2023-05-07T20:30:45.642Z,1152
2023-05-07T20:36:03.687Z,1148
2023-05-07T20:41:22.282Z,1145
2023-05-07T20:46:40.816Z,1153
2023-05-07T20:51:59.433Z,1152
2023-05-07T20:57:17.384Z,1147
2023-05-07T21:02:35.537Z,1149
2023-05-07T21:07:38.468Z,1099
2023-05-07T21:12:56.948Z,1102
2023-05-07T21:18:15.274Z,1138
2023-05-07T21:23:33.781Z,1205
2023-05-07T21:28:55.396Z,1256
2023-05-07T21:34:13.979Z,1288
2023-05-07T21:39:32.555Z,1324
2023-05-07T21:44:51.066Z,1359
2023-05-07T21:50:09.644Z,1383
2023-05-07T21:55:28.415Z,1410
2023-05-07T22:00:46.352Z,1426
2023-05-07T22:06:04.589Z,1444
2023-05-07T22:11:23.981Z,1453
2023-05-07T22:16:42.680Z,1461
2023-05-07T22:22:00.876Z,1466
2023-05-07T22:27:19.393Z,1476
2023-05-07T22:32:37.417Z,1481
2023-05-07T22:37:56.104Z,1492
2023-05-07T22:43:14.429Z,1505
2023-05-07T22:48:33.116Z,1501
2023-05-07T22:53:51.321Z,1505
2023-05-07T22:59:09.713Z,1512
2023-05-07T23:04:27.879Z,1518
2023-05-07T23:09:46.075Z,1516
2023-05-07T23:15:04.257Z,1524
2023-05-07T23:20:22.648Z,1525
2023-05-07T23:25:41.230Z,1551
2023-05-07T23:30:59.708Z,1564
2023-05-07T23:36:18.403Z,1577
2023-05-07T23:41:36.598Z,1589
2023-05-07T23:46:54.604Z,1593
2023-05-07T23:52:12.735Z,1602
2023-05-07T23:57:30.695Z,1604
